Latest Weather Observations for Bega

IDN60801

Issued at 9:33 am EST Friday 26 August 2016 (issued every 30 minutes, with the page automatically refreshed every 10 minutes)

About weather observations | Map of weather stations | Latest weather observations for NSW | Other Formats
Station Details ID: 069139 Name: BEGA AWS Lat: -36.67 Lon: 149.82 Height: 41.0 m
Data from the previous 72 hours. | See also: Recent months at Bega
Date/Time
EST
Temp
°C
App
Temp
°C
Dew
Point
°C
Rel
Hum
%
Delta-T
°C
Wind Press
QNH
hPa
Press
MSL
hPa
Rain since
9am
mm
Dir  Spd
km/h
Gust
km/h
Spd
kts
Gust
kts
26/09:30am 12.7 7.1 3.4 53 4.1 SW 22 30 12 16 1019.4 1019.4 0.0
26/09:00am 11.7 7.4 3.5 57 3.6 SW 15 24 8 13 1019.5 1019.5 0.0
26/08:30am 7.3 5.1 3.2 75 1.7 ENE 4 7 2 4 1019.6 1019.6 0.0
26/08:00am 5.0 3.5 3.0 87 0.8 CALM 0 0 0 0 1019.4 1019.4 0.0
26/07:30am 2.1 0.2 0.6 90 0.6 CALM 0 0 0 0 1019.2 1019.2 0.0
26/07:00am 1.3 -0.7 0.1 92 0.4 CALM 0 0 0 0 1018.9 1018.9 0.0
26/06:30am 1.7 -0.2 0.4 91 0.5 CALM 0 0 0 0 1018.5 1018.5 0.0
26/06:00am 1.4 -1.8 -0.2 89 0.6 ENE 6 7 3 4 1018.1 1018.1 0.0
26/05:30am 2.3 0.4 0.5 88 0.7 CALM 0 0 0 0 1017.8 1017.8 0.0
26/05:00am 2.7 0.4 0.4 85 0.9 NNW 2 7 1 4 1017.5 1017.5 0.0
26/04:30am 4.4 2.1 0.4 75 1.5 WSW 2 7 1 4 1017.0 1017.0 0.0
26/04:00am 7.8 4.7 1.4 64 2.6 W 7 15 4 8 1016.8 1016.8 0.0
26/03:30am 7.8 3.9 1.4 64 2.6 WSW 11 19 6 10 1016.6 1016.6 0.0
26/03:00am 8.2 3.2 1.4 62 2.8 WSW 17 20 9 11 1016.5 1016.5 0.0
26/02:30am 8.1 3.5 1.3 62 2.8 WSW 15 20 8 11 1016.5 1016.5 0.0
26/02:00am 8.4 2.8 1.3 61 2.9 WSW 20 26 11 14 1016.6 1016.6 0.0
26/01:30am 7.4 3.6 1.5 66 2.4 WSW 11 19 6 10 1016.7 1016.7 0.0
26/01:00am 7.7 3.0 0.9 62 2.7 WSW 15 22 8 12 1016.6 1016.6 0.0
26/12:30am 7.3 3.3 0.5 62 2.7 W 11 15 6 8 1016.6 1016.6 0.0
26/12:00am 7.6 4.0 0.6 61 2.8 WNW 9 13 5 7 1016.4 1016.4 0.0
 
Date/Time
EST
Temp
°C
App
Temp
°C
Dew
Point
°C
Rel
Hum
%
Delta-T
°C
Wind Press
QNH
hPa
Press
MSL
hPa
Rain since
9am
mm
Dir  Spd
km/h
Gust
km/h
Spd
kts
Gust
kts
25/11:30pm 8.6 6.0 0.8 58 3.2 - 4 11 2 6 1016.4 1016.4 0.0
25/11:00pm 8.8 3.4 1.2 59 3.1 WSW 19 28 10 15 1015.8 1015.8 0.0
25/10:30pm 9.0 2.7 1.4 59 3.1 WSW 24 35 13 19 1015.3 1015.4 0.0
25/10:00pm 9.0 2.6 1.2 58 3.2 WSW 24 35 13 19 1015.1 1015.2 0.0
25/09:30pm 9.2 3.3 1.4 58 3.2 WSW 22 32 12 17 1015.1 1015.2 0.0
25/09:00pm 9.2 3.2 1.1 57 3.3 SW 22 33 12 18 1015.1 1015.2 0.0
25/08:30pm 9.5 3.9 1.2 56 3.4 WSW 20 28 11 15 1015.0 1015.1 0.0
25/08:00pm 9.1 3.1 1.3 58 3.2 WSW 22 33 12 18 1014.8 1014.9 0.0
25/07:30pm 8.8 4.1 1.0 58 3.2 SW 15 22 8 12 1014.7 1014.8 0.0
25/07:00pm 9.2 4.3 2.3 62 2.9 SW 17 24 9 13 1014.4 1014.5 0.0
25/06:30pm 9.2 3.8 2.3 62 2.9 WSW 20 28 11 15 1013.7 1013.8 0.0
25/06:00pm 9.7 4.3 2.3 60 3.1 SW 20 28 11 15 1013.1 1013.2 0.0
25/05:30pm 10.1 4.3 2.2 58 3.4 SW 22 32 12 17 1012.5 1012.6 0.0
25/05:00pm 11.3 3.3 1.8 52 4.0 SSW 33 54 18 29 1011.9 1012.0 0.0
25/04:54pm 11.9 5.0 2.4 52 4.1 SSW 28 46 15 25 1011.7 1011.8 0.0
25/04:44pm 12.7 5.7 1.7 47 4.7 SSW 28 39 15 21 1011.5 1011.6 0.0
25/04:30pm 14.0 8.8 -0.1 38 5.9 SSW 17 20 9 11 1011.1 1011.2 0.0
25/04:00pm 14.6 8.9 0.5 38 6.0 S 20 26 11 14 1010.9 1011.0 0.0
25/03:30pm 15.8 11.3 0.0 34 6.7 SW 13 24 7 13 1010.6 1010.7 0.0
25/03:00pm 14.6 9.2 -1.1 34 6.5 WSW 17 24 9 13 1010.6 1010.7 0.0
25/02:30pm 15.3 9.6 -0.4 34 6.6 SW 19 26 10 14 1010.5 1010.6 0.0
25/02:00pm 15.6 9.8 -0.2 34 6.7 SW 20 30 11 16 1010.3 1010.4 0.0
25/01:30pm 15.3 9.8 0.3 36 6.4 SW 19 32 10 17 1010.2 1010.3 0.0
25/01:00pm 14.6 8.7 -0.7 35 6.4 SW 20 32 11 17 1010.2 1010.3 0.0
25/12:30pm 14.5 7.8 -0.8 35 6.3 WSW 24 33 13 18 1010.4 1010.5 0.0
25/12:00pm 14.4 8.2 -0.5 36 6.2 SW 22 33 12 18 1010.7 1010.8 0.0
25/11:30am 14.3 8.7 0.2 38 5.9 WSW 19 28 10 15 1010.8 1010.9 0.0
25/11:00am 13.8 7.7 0.5 40 5.6 SW 22 30 12 16 1010.9 1011.0 0.0
25/10:30am 13.1 7.0 0.2 41 5.4 SW 22 33 12 18 1010.8 1010.9 0.0
25/10:00am 12.5 6.8 0.6 44 5.0 SW 20 37 11 20 1011.1 1011.2 0.0
25/09:30am 12.1 7.5 1.4 48 4.5 SW 15 26 8 14 1011.2 1011.3 0.0
25/09:00am 11.2 7.4 2.0 53 3.9 W 11 22 6 12 1011.2 1011.3 0.2
25/08:30am 10.8 9.4 3.8 62 3.1 CALM 0 7 0 4 1011.3 1011.4 0.2
25/08:00am 8.0 6.1 2.7 69 2.2 S 2 7 1 4 1011.1 1011.2 0.2
25/07:30am 7.4 4.4 2.1 69 2.2 SW 7 13 4 7 1011.0 1011.1 0.2
25/07:00am 6.5 3.1 1.6 71 2.0 W 9 15 5 8 1010.9 1011.0 0.2
25/06:30am 6.4 4.7 1.9 73 1.8 CALM 0 0 0 0 1010.5 1010.6 0.2
25/06:00am 7.3 3.5 1.8 68 2.3 WSW 11 15 6 8 1010.0 1010.1 0.2
25/05:30am 8.1 3.6 2.1 66 2.5 WSW 15 19 8 10 1009.9 1010.0 0.2
25/05:00am 9.0 4.1 2.3 63 2.8 WSW 17 24 9 13 1009.7 1009.8 0.2
25/04:30am 8.8 4.7 2.2 63 2.8 WSW 13 19 7 10 1009.5 1009.6 0.2
25/04:00am 9.0 3.8 2.3 63 2.8 WSW 19 30 10 16 1009.4 1009.5 0.2
25/03:30am 9.2 5.2 2.8 64 2.7 SW 13 19 7 10 1009.5 1009.6 0.2
25/03:00am 8.3 4.8 3.6 72 2.0 WSW 11 17 6 9 1009.4 1009.5 0.2
25/02:30am 7.5 5.8 5.8 89 0.8 NE 4 6 2 3 1009.5 1009.6 0.2
25/02:00am 9.1 5.2 3.5 68 2.4 WSW 13 15 7 8 1009.7 1009.8 0.2
25/01:30am 7.8 6.6 6.3 90 0.7 WSW 2 9 1 5 1009.8 1009.9 0.2
25/01:00am 8.8 6.1 5.4 79 1.5 SW 9 15 5 8 1009.9 1010.0 0.2
25/12:30am 7.9 6.3 6.4 90 0.7 ENE 4 7 2 4 1010.2 1010.3 0.2
25/12:00am 9.7 6.1 5.1 73 2.1 WSW 13 19 7 10 1010.2 1010.3 0.2
 
Date/Time
EST
Temp
°C
App
Temp
°C
Dew
Point
°C
Rel
Hum
%
Delta-T
°C
Wind Press
QNH
hPa
Press
MSL
hPa
Rain since
9am
mm
Dir  Spd
km/h
Gust
km/h
Spd
kts
Gust
kts
24/11:30pm 7.9 6.8 7.0 94 0.4 N 2 7 1 4 1010.5 1010.6 0.2
24/11:00pm 8.0 7.4 7.2 95 0.4 CALM 0 0 0 0 1010.6 1010.7 0.2
24/10:30pm 8.3 7.7 7.4 94 0.4 CALM 0 6 0 3 1010.8 1010.9 0.2
24/10:00pm 8.8 7.4 7.1 89 0.8 E 4 11 2 6 1011.2 1011.3 0.2
24/09:30pm 8.6 6.6 6.9 89 0.8 SW 7 9 4 5 1011.3 1011.4 0.2
24/09:00pm 8.4 7.4 7.2 92 0.6 SW 2 6 1 3 1011.5 1011.6 0.2
24/08:30pm 8.6 7.2 7.1 90 0.7 ENE 4 9 2 5 1011.5 1011.6 0.2
24/08:00pm 9.1 8.4 6.9 86 1.0 CALM 0 2 0 1 1011.7 1011.8 0.2
24/07:30pm 9.9 9.1 6.4 79 1.6 CALM 0 0 0 0 1011.7 1011.8 0.2
24/07:00pm 10.0 8.7 6.0 76 1.9 NE 2 6 1 3 1011.6 1011.7 0.0
24/06:30pm 10.6 9.5 5.2 69 2.5 CALM 0 0 0 0 1011.5 1011.6 0.0
24/06:00pm 10.7 8.2 5.0 68 2.6 SW 7 9 4 5 1011.3 1011.4 0.0
24/05:30pm 10.9 8.4 5.0 67 2.7 SW 7 11 4 6 1011.3 1011.4 0.0
24/05:00pm 11.1 9.3 5.2 67 2.7 SW 4 9 2 5 1011.2 1011.3 0.0
24/04:30pm 11.7 9.4 5.6 66 2.8 SE 7 11 4 6 1011.0 1011.1 0.0
24/04:00pm 12.1 8.8 4.8 61 3.3 ESE 11 15 6 8 1011.0 1011.1 0.0
24/03:30pm 12.6 9.2 4.1 56 3.8 ESE 11 15 6 8 1011.0 1011.1 0.0
24/03:00pm 13.5 10.9 4.1 53 4.3 E 7 9 4 5 1011.2 1011.3 0.0
24/02:30pm 13.6 12.1 2.8 48 4.8 CALM 0 0 0 0 1011.4 1011.5 0.0
24/02:00pm 13.2 11.6 2.7 49 4.6 CALM 0 0 0 0 1011.6 1011.7 0.0
24/01:30pm 13.3 10.5 2.2 47 4.8 E 6 9 3 5 1011.7 1011.8 0.0
24/01:00pm 13.6 10.9 3.7 51 4.5 NE 7 9 4 5 1012.1 1012.2 0.0
24/12:30pm 13.2 10.5 3.8 53 4.2 ENE 7 11 4 6 1012.6 1012.7 0.0
24/12:00pm 12.9 12.1 6.5 65 3.1 CALM 0 0 0 0 1013.4 1013.5 0.0
24/11:30am 11.5 9.3 6.4 71 2.4 NNE 7 11 4 6 1014.3 1014.4 0.0
24/11:00am 10.8 9.9 6.0 72 2.2 CALM 0 0 0 0 1014.7 1014.8 0.0
24/10:30am 10.7 8.7 6.1 73 2.1 ENE 6 9 3 5 1015.3 1015.4 0.0
24/10:00am 10.1 8.0 5.7 74 2.0 ESE 6 9 3 5 1015.4 1015.5 0.0
24/09:30am 8.9 6.7 5.5 79 1.5 ENE 6 7 3 4 1015.8 1015.8 0.0
24/09:00am 6.6 4.7 4.9 89 0.7 E 4 7 2 4 1016.1 1016.1 0.0
24/08:30am 4.5 2.0 3.9 96 0.3 NNE 6 9 3 5 1016.3 1016.3 0.0
24/08:00am 2.5 0.9 2.4 99 0.0 CALM 0 7 0 4 1016.3 1016.3 0.0
24/07:30am 1.7 0.0 1.6 99 0.0 CALM 0 0 0 0 1016.4 1016.4 0.0
24/07:00am -0.2 -2.2 -0.3 99 0.0 CALM 0 0 0 0 1016.5 1016.5 0.0
24/06:30am -0.2 -2.2 -0.3 99 0.0 CALM 0 0 0 0 1016.4 1016.4 0.0
24/06:00am -1.0 -3.1 -1.1 99 0.0 CALM 0 0 0 0 1016.4 1016.4 0.0
24/05:30am 0.9 -1.3 0.8 99 0.0 WSW 2 7 1 4 1016.4 1016.4 0.0
24/05:00am 0.6 -1.3 0.5 99 0.0 CALM 0 0 0 0 1016.1 1016.1 0.0
24/04:30am 0.4 -1.5 0.3 99 0.0 CALM 0 0 0 0 1016.0 1016.0 0.0
24/04:00am 0.0 -2.0 -0.1 99 0.0 CALM 0 0 0 0 1016.1 1016.1 0.0
24/03:30am 0.4 -2.7 0.3 99 0.0 SW 6 7 3 4 1016.1 1016.1 0.0
24/03:00am 0.8 -2.2 0.7 99 0.0 NNE 6 11 3 6 1016.5 1016.5 0.0
24/02:30am 1.2 -1.8 1.1 99 0.0 SW 6 7 3 4 1016.7 1016.7 0.0
24/02:00am 1.4 -0.4 1.0 97 0.1 CALM 0 0 0 0 1017.3 1017.3 0.0
24/01:30am 3.0 1.4 2.7 98 0.1 CALM 0 0 0 0 1017.2 1017.2 0.0
24/01:00am 3.2 1.7 2.9 98 0.1 CALM 0 0 0 0 1017.4 1017.4 0.0
24/12:30am 2.8 1.2 2.5 98 0.1 CALM 0 0 0 0 1017.7 1017.7 0.0
24/12:00am 2.9 0.2 2.5 97 0.2 S 6 9 3 5 1017.8 1017.8 0.0
 
Date/Time
EST
Temp
°C
App
Temp
°C
Dew
Point
°C
Rel
Hum
%
Delta-T
°C
Wind Press
QNH
hPa
Press
MSL
hPa
Rain since
9am
mm
Dir  Spd
km/h
Gust
km/h
Spd
kts
Gust
kts
23/11:30pm 3.7 1.8 2.7 93 0.4 NNE 2 6 1 3 1018.0 1018.0 0.0
23/11:00pm 4.4 2.7 3.8 96 0.2 WSW 2 6 1 3 1017.5 1017.5 0.0
23/10:30pm 3.7 0.5 2.8 94 0.4 SSW 9 11 5 6 1017.4 1017.4 0.0
23/10:00pm 4.0 2.1 3.1 94 0.4 S 2 7 1 4 1017.4 1017.4 0.0
23/09:30pm 5.2 3.2 4.2 93 0.4 S 4 7 2 4 1017.5 1017.5 0.0
23/09:00pm 5.3 3.9 3.8 90 0.6 CALM 0 0 0 0 1017.7 1017.7 0.0
23/08:30pm 6.6 4.2 4.1 84 1.1 NW 6 9 3 5 1017.6 1017.6 0.0
23/08:00pm 7.1 5.8 4.2 82 1.3 CALM 0 6 0 3 1017.4 1017.4 0.0
23/07:30pm 8.5 7.4 5.1 79 1.5 CALM 0 0 0 0 1017.0 1017.0 0.0
23/07:00pm 9.2 7.0 5.2 76 1.8 NW 6 7 3 4 1016.3 1016.3 0.0
23/06:30pm 10.5 9.5 5.5 71 2.3 CALM 0 0 0 0 1016.1 1016.1 0.0
23/06:00pm 11.2 10.2 5.5 68 2.6 CALM 0 0 0 0 1016.1 1016.1 0.0
23/05:30pm 12.0 10.6 5.4 64 3.1 SE 2 7 1 4 1015.9 1015.9 0.0
23/05:00pm 12.6 9.9 5.5 62 3.3 ESE 9 13 5 7 1015.8 1015.8 0.0
23/04:30pm 13.2 10.1 5.6 60 3.6 E 11 17 6 9 1015.1 1015.2 0.0
23/04:00pm 14.0 10.7 6.4 60 3.7 ESE 13 17 7 9 1014.4 1014.5 0.0
23/03:30pm 14.0 10.5 5.6 57 4.0 SSE 13 20 7 11 1014.4 1014.5 0.0
23/03:00pm 14.9 11.8 5.4 53 4.5 S 11 15 6 8 1014.3 1014.4 0.0
23/02:30pm 14.5 11.5 6.1 57 4.0 SSE 11 15 6 8 1014.6 1014.7 0.0
23/02:00pm 14.6 11.4 4.9 52 4.5 SSW 11 20 6 11 1014.6 1014.7 0.0
23/01:30pm 14.3 9.8 5.9 57 4.0 SSW 19 28 10 15 1014.4 1014.5 0.0
23/01:00pm 13.9 9.3 5.5 57 4.0 S 19 30 10 16 1014.3 1014.4 0.0
23/12:30pm 14.7 9.9 5.5 54 4.4 SSW 20 30 11 16 1014.5 1014.6 0.0
23/12:00pm 14.2 10.2 6.6 60 3.7 SSW 17 24 9 13 1014.9 1015.0 0.0
23/11:30am 14.1 9.2 6.9 62 3.5 SSW 22 32 12 17 1015.0 1015.1 0.0
23/11:00am 13.2 8.6 6.3 63 3.3 SSW 20 30 11 16 1015.3 1015.4 0.0
23/10:30am 11.9 9.5 7.2 73 2.3 SSW 9 26 5 14 1015.1 1015.2 0.0
23/10:00am 9.9 9.3 8.8 93 0.5 NE 2 6 1 3 1015.1 1015.2 0.0

Other Formats:

Comma delimited format used in spreadsheet applications
http://www.bom.gov.au/fwo/IDN60801/IDN60801.95931.axf

JavaScript Object Notation format (JSON) in row-major order
http://www.bom.gov.au/fwo/IDN60801/IDN60801.95931.json